sensor_id;sensor_type;location;lat;lon;timestamp;P1;durP1;ratioP1;P2;durP2;ratioP2
22332;SDS011;11334;36.986;-121.936;2023-07-16T00:00:10;4.22;;;2.38;;
22332;SDS011;11334;36.986;-121.936;2023-07-16T00:02:37;4.63;;;3.08;;
22332;SDS011;11334;36.986;-121.936;2023-07-16T00:05:04;4.32;;;2.92;;
22332;SDS011;11334;36.986;-121.936;2023-07-16T00:07:31;4.05;;;3.22;;
22332;SDS011;11334;36.986;-121.936;2023-07-16T00:09:57;4.88;;;3.30;;
22332;SDS011;11334;36.986;-121.936;2023-07-16T00:12:23;4.38;;;2.65;;
22332;SDS011;11334;36.986;-121.936;2023-07-16T00:14:49;6.28;;;3.22;;
22332;SDS011;11334;36.986;-121.936;2023-07-16T00:17:16;3.60;;;2.53;;
22332;SDS011;11334;36.986;-121.936;2023-07-16T00:19:42;3.95;;;2.97;;
22332;SDS011;11334;36.986;-121.936;2023-07-16T00:22:08;5.50;;;3.20;;
22332;SDS011;11334;36.986;-121.936;2023-07-16T00:24:35;5.15;;;3.13;;
22332;SDS011;11334;36.986;-121.936;2023-07-16T00:27:01;3.75;;;3.13;;
22332;SDS011;11334;36.986;-121.936;2023-07-16T00:29:29;3.58;;;3.03;;
22332;SDS011;11334;36.986;-121.936;2023-07-16T00:31:55;3.20;;;2.90;;
22332;SDS011;11334;36.986;-121.936;2023-07-16T00:34:21;5.10;;;2.90;;
22332;SDS011;11334;36.986;-121.936;2023-07-16T00:36:47;5.47;;;2.97;;
22332;SDS011;11334;36.986;-121.936;2023-07-16T00:39:13;3.72;;;2.33;;
22332;SDS011;11334;36.986;-121.936;2023-07-16T00:41:40;5.32;;;2.83;;
22332;SDS011;11334;36.986;-121.936;2023-07-16T00:44:06;5.00;;;2.72;;
22332;SDS011;11334;36.986;-121.936;2023-07-16T00:46:32;5.55;;;3.00;;
22332;SDS011;11334;36.986;-121.936;2023-07-16T00:48:59;3.47;;;2.75;;
22332;SDS011;11334;36.986;-121.936;2023-07-16T00:51:25;4.70;;;2.85;;
22332;SDS011;11334;36.986;-121.936;2023-07-16T00:53:52;4.07;;;2.75;;
22332;SDS011;11334;36.986;-121.936;2023-07-16T00:56:18;5.38;;;2.97;;
22332;SDS011;11334;36.986;-121.936;2023-07-16T00:58:45;3.75;;;2.70;;
22332;SDS011;11334;36.986;-121.936;2023-07-16T01:01:11;4.35;;;2.90;;
22332;SDS011;11334;36.986;-121.936;2023-07-16T01:03:38;5.43;;;3.20;;
22332;SDS011;11334;36.986;-121.936;2023-07-16T01:06:08;6.40;;;3.13;;
22332;SDS011;11334;36.986;-121.936;2023-07-16T01:08:49;6.25;;;3.58;;
22332;SDS011;11334;36.986;-121.936;2023-07-16T01:11:18;6.22;;;4.18;;
22332;SDS011;11334;36.986;-121.936;2023-07-16T01:13:44;6.43;;;4.03;;
22332;SDS011;11334;36.986;-121.936;2023-07-16T01:16:20;5.72;;;3.72;;
22332;SDS011;11334;36.986;-121.936;2023-07-16T01:18:48;4.70;;;4.00;;
22332;SDS011;11334;36.986;-121.936;2023-07-16T01:21:15;4.75;;;4.32;;
22332;SDS011;11334;36.986;-121.936;2023-07-16T01:29:31;4.22;;;3.20;;
22332;SDS011;11334;36.986;-121.936;2023-07-16T01:32:03;4.07;;;3.55;;
22332;SDS011;11334;36.986;-121.936;2023-07-16T01:34:31;3.67;;;3.38;;
22332;SDS011;11334;36.986;-121.936;2023-07-16T01:37:00;4.30;;;4.00;;
22332;SDS011;11334;36.986;-121.936;2023-07-16T01:39:27;4.20;;;3.67;;
22332;SDS011;11334;36.986;-121.936;2023-07-16T01:41:53;4.40;;;4.00;;
22332;SDS011;11334;36.986;-121.936;2023-07-16T01:44:20;4.60;;;4.20;;
22332;SDS011;11334;36.986;-121.936;2023-07-16T01:47:08;3.63;;;3.33;;
22332;SDS011;11334;36.986;-121.936;2023-07-16T01:49:37;4.65;;;4.30;;
22332;SDS011;11334;36.986;-121.936;2023-07-16T01:52:05;4.32;;;4.03;;
22332;SDS011;11334;36.986;-121.936;2023-07-16T01:54:32;4.53;;;4.22;;
22332;SDS011;11334;36.986;-121.936;2023-07-16T01:56:58;4.88;;;4.05;;
22332;SDS011;11334;36.986;-121.936;2023-07-16T01:59:24;5.43;;;4.93;;
22332;SDS011;11334;36.986;-121.936;2023-07-16T02:01:50;7.65;;;5.35;;
22332;SDS011;11334;36.986;-121.936;2023-07-16T02:04:17;6.65;;;6.05;;
22332;SDS011;11334;36.986;-121.936;2023-07-16T02:06:43;6.10;;;5.50;;
22332;SDS011;11334;36.986;-121.936;2023-07-16T02:09:10;6.07;;;5.57;;
22332;SDS011;11334;36.986;-121.936;2023-07-16T02:11:39;6.30;;;5.43;;
22332;SDS011;11334;36.986;-121.936;2023-07-16T02:14:05;4.70;;;4.35;;
22332;SDS011;11334;36.986;-121.936;2023-07-16T02:16:31;5.25;;;4.53;;
22332;SDS011;11334;36.986;-121.936;2023-07-16T02:18:58;5.55;;;5.15;;
22332;SDS011;11334;36.986;-121.936;2023-07-16T02:21:24;5.18;;;4.65;;
22332;SDS011;11334;36.986;-121.936;2023-07-16T02:23:50;5.70;;;5.13;;
22332;SDS011;11334;36.986;-121.936;2023-07-16T02:26:16;6.68;;;5.30;;
22332;SDS011;11334;36.986;-121.936;2023-07-16T02:28:42;5.90;;;5.22;;
22332;SDS011;11334;36.986;-121.936;2023-07-16T02:31:09;6.20;;;5.63;;
22332;SDS011;11334;36.986;-121.936;2023-07-16T02:33:35;6.20;;;5.60;;
22332;SDS011;11334;36.986;-121.936;2023-07-16T02:36:01;5.75;;;5.25;;
22332;SDS011;11334;36.986;-121.936;2023-07-16T02:38:27;6.97;;;6.13;;
22332;SDS011;11334;36.986;-121.936;2023-07-16T02:40:53;6.45;;;5.85;;
22332;SDS011;11334;36.986;-121.936;2023-07-16T02:43:20;6.50;;;5.70;;
22332;SDS011;11334;36.986;-121.936;2023-07-16T02:45:46;6.63;;;5.28;;
22332;SDS011;11334;36.986;-121.936;2023-07-16T02:48:12;6.18;;;5.57;;
22332;SDS011;11334;36.986;-121.936;2023-07-16T02:50:38;5.93;;;5.43;;
22332;SDS011;11334;36.986;-121.936;2023-07-16T02:53:05;6.85;;;5.47;;
22332;SDS011;11334;36.986;-121.936;2023-07-16T02:55:32;5.82;;;5.22;;
22332;SDS011;11334;36.986;-121.936;2023-07-16T02:58:00;6.97;;;5.40;;
22332;SDS011;11334;36.986;-121.936;2023-07-16T03:00:32;7.05;;;5.40;;
22332;SDS011;11334;36.986;-121.936;2023-07-16T03:02:58;7.00;;;5.82;;
22332;SDS011;11334;36.986;-121.936;2023-07-16T03:05:25;7.93;;;6.38;;
22332;SDS011;11334;36.986;-121.936;2023-07-16T03:07:53;9.20;;;6.45;;
22332;SDS011;11334;36.986;-121.936;2023-07-16T03:10:20;7.55;;;6.10;;
22332;SDS011;11334;36.986;-121.936;2023-07-16T03:12:46;7.50;;;6.25;;
22332;SDS011;11334;36.986;-121.936;2023-07-16T03:15:13;12.32;;;6.53;;
22332;SDS011;11334;36.986;-121.936;2023-07-16T03:17:39;8.38;;;6.80;;
22332;SDS011;11334;36.986;-121.936;2023-07-16T03:20:05;9.68;;;5.22;;
22332;SDS011;11334;36.986;-121.936;2023-07-16T03:22:32;9.20;;;5.45;;
22332;SDS011;11334;36.986;-121.936;2023-07-16T03:24:59;10.50;;;5.28;;
22332;SDS011;11334;36.986;-121.936;2023-07-16T03:27:25;6.60;;;5.32;;
22332;SDS011;11334;36.986;-121.936;2023-07-16T03:29:51;6.45;;;5.00;;
22332;SDS011;11334;36.986;-121.936;2023-07-16T03:32:17;5.60;;;5.10;;
22332;SDS011;11334;36.986;-121.936;2023-07-16T03:34:43;9.20;;;5.32;;
22332;SDS011;11334;36.986;-121.936;2023-07-16T03:37:10;7.93;;;5.68;;
22332;SDS011;11334;36.986;-121.936;2023-07-16T03:39:36;7.40;;;5.75;;
22332;SDS011;11334;36.986;-121.936;2023-07-16T03:42:02;7.97;;;5.90;;
22332;SDS011;11334;36.986;-121.936;2023-07-16T03:44:29;8.63;;;5.80;;
22332;SDS011;11334;36.986;-121.936;2023-07-16T03:46:55;7.03;;;6.00;;
22332;SDS011;11334;36.986;-121.936;2023-07-16T03:49:21;9.45;;;6.80;;
22332;SDS011;11334;36.986;-121.936;2023-07-16T03:51:47;10.45;;;6.70;;
22332;SDS011;11334;36.986;-121.936;2023-07-16T03:54:14;9.35;;;6.72;;
22332;SDS011;11334;36.986;-121.936;2023-07-16T03:56:40;8.10;;;6.45;;
22332;SDS011;11334;36.986;-121.936;2023-07-16T03:59:06;8.45;;;7.55;;
22332;SDS011;11334;36.986;-121.936;2023-07-16T04:01:32;9.98;;;6.60;;
22332;SDS011;11334;36.986;-121.936;2023-07-16T04:03:58;11.68;;;7.07;;
22332;SDS011;11334;36.986;-121.936;2023-07-16T04:06:25;10.48;;;7.75;;
22332;SDS011;11334;36.986;-121.936;2023-07-16T04:08:51;10.73;;;7.32;;
22332;SDS011;11334;36.986;-121.936;2023-07-16T04:11:17;8.98;;;6.88;;
22332;SDS011;11334;36.986;-121.936;2023-07-16T04:13:43;9.07;;;7.20;;
22332;SDS011;11334;36.986;-121.936;2023-07-16T04:16:09;9.00;;;7.00;;
22332;SDS011;11334;36.986;-121.936;2023-07-16T04:18:36;9.77;;;7.55;;
22332;SDS011;11334;36.986;-121.936;2023-07-16T04:21:02;7.70;;;6.72;;
22332;SDS011;11334;36.986;-121.936;2023-07-16T04:23:28;10.18;;;6.75;;
22332;SDS011;11334;36.986;-121.936;2023-07-16T04:25:57;9.65;;;7.15;;
22332;SDS011;11334;36.986;-121.936;2023-07-16T04:28:23;12.27;;;6.93;;
22332;SDS011;11334;36.986;-121.936;2023-07-16T04:30:50;8.00;;;7.03;;
22332;SDS011;11334;36.986;-121.936;2023-07-16T04:33:16;8.63;;;6.85;;
22332;SDS011;11334;36.986;-121.936;2023-07-16T04:35:44;8.27;;;6.90;;
22332;SDS011;11334;36.986;-121.936;2023-07-16T04:38:10;11.45;;;8.23;;
22332;SDS011;11334;36.986;-121.936;2023-07-16T04:40:36;10.80;;;8.15;;
22332;SDS011;11334;36.986;-121.936;2023-07-16T04:43:03;11.00;;;7.63;;
22332;SDS011;11334;36.986;-121.936;2023-07-16T04:45:29;11.45;;;7.47;;
22332;SDS011;11334;36.986;-121.936;2023-07-16T04:47:55;11.23;;;7.45;;
22332;SDS011;11334;36.986;-121.936;2023-07-16T04:50:21;8.52;;;7.65;;
22332;SDS011;11334;36.986;-121.936;2023-07-16T04:52:47;8.73;;;7.82;;
22332;SDS011;11334;36.986;-121.936;2023-07-16T04:55:14;9.80;;;8.57;;
22332;SDS011;11334;36.986;-121.936;2023-07-16T04:57:40;10.73;;;8.57;;
22332;SDS011;11334;36.986;-121.936;2023-07-16T05:00:07;10.65;;;8.23;;
22332;SDS011;11334;36.986;-121.936;2023-07-16T05:02:33;12.75;;;8.88;;
22332;SDS011;11334;36.986;-121.936;2023-07-16T05:04:59;11.85;;;9.05;;
22332;SDS011;11334;36.986;-121.936;2023-07-16T05:07:26;12.52;;;9.23;;
22332;SDS011;11334;36.986;-121.936;2023-07-16T05:09:52;12.15;;;8.88;;
22332;SDS011;11334;36.986;-121.936;2023-07-16T05:12:18;12.38;;;9.73;;
22332;SDS011;11334;36.986;-121.936;2023-07-16T05:14:45;12.23;;;9.05;;
22332;SDS011;11334;36.986;-121.936;2023-07-16T05:17:13;10.70;;;8.27;;
22332;SDS011;11334;36.986;-121.936;2023-07-16T05:19:39;16.52;;;8.90;;
22332;SDS011;11334;36.986;-121.936;2023-07-16T05:22:06;10.90;;;8.88;;
22332;SDS011;11334;36.986;-121.936;2023-07-16T05:24:32;9.73;;;8.73;;
22332;SDS011;11334;36.986;-121.936;2023-07-16T05:26:59;8.43;;;7.60;;
22332;SDS011;11334;36.986;-121.936;2023-07-16T05:29:26;13.77;;;9.05;;
22332;SDS011;11334;36.986;-121.936;2023-07-16T05:31:52;10.32;;;8.02;;
22332;SDS011;11334;36.986;-121.936;2023-07-16T05:34:18;10.20;;;8.18;;
22332;SDS011;11334;36.986;-121.936;2023-07-16T05:36:45;13.52;;;8.63;;
22332;SDS011;11334;36.986;-121.936;2023-07-16T05:39:11;10.10;;;7.93;;
22332;SDS011;11334;36.986;-121.936;2023-07-16T05:41:40;14.32;;;9.27;;
22332;SDS011;11334;36.986;-121.936;2023-07-16T05:44:07;14.25;;;8.40;;
22332;SDS011;11334;36.986;-121.936;2023-07-16T05:46:34;9.70;;;8.70;;
22332;SDS011;11334;36.986;-121.936;2023-07-16T05:49:00;11.05;;;8.57;;
22332;SDS011;11334;36.986;-121.936;2023-07-16T05:51:26;12.27;;;8.20;;
22332;SDS011;11334;36.986;-121.936;2023-07-16T05:53:52;14.70;;;8.63;;
22332;SDS011;11334;36.986;-121.936;2023-07-16T05:56:19;12.68;;;9.02;;
22332;SDS011;11334;36.986;-121.936;2023-07-16T05:58:45;10.13;;;8.60;;
22332;SDS011;11334;36.986;-121.936;2023-07-16T06:01:11;9.57;;;8.13;;
22332;SDS011;11334;36.986;-121.936;2023-07-16T06:03:37;14.40;;;8.45;;
22332;SDS011;11334;36.986;-121.936;2023-07-16T06:06:04;11.85;;;8.68;;
22332;SDS011;11334;36.986;-121.936;2023-07-16T06:08:30;10.40;;;8.07;;
22332;SDS011;11334;36.986;-121.936;2023-07-16T06:10:56;11.77;;;8.63;;
22332;SDS011;11334;36.986;-121.936;2023-07-16T06:13:22;12.95;;;9.07;;
22332;SDS011;11334;36.986;-121.936;2023-07-16T06:15:49;12.00;;;9.43;;
22332;SDS011;11334;36.986;-121.936;2023-07-16T06:18:15;13.55;;;9.18;;
22332;SDS011;11334;36.986;-121.936;2023-07-16T06:20:44;12.75;;;9.70;;
22332;SDS011;11334;36.986;-121.936;2023-07-16T06:23:14;12.70;;;9.35;;
22332;SDS011;11334;36.986;-121.936;2023-07-16T06:25:42;11.35;;;9.00;;
22332;SDS011;11334;36.986;-121.936;2023-07-16T06:28:13;11.63;;;9.07;;
22332;SDS011;11334;36.986;-121.936;2023-07-16T06:30:40;14.80;;;8.48;;
22332;SDS011;11334;36.986;-121.936;2023-07-16T06:33:07;10.98;;;8.20;;
22332;SDS011;11334;36.986;-121.936;2023-07-16T06:35:33;12.23;;;8.63;;
22332;SDS011;11334;36.986;-121.936;2023-07-16T06:37:59;10.70;;;8.82;;
22332;SDS011;11334;36.986;-121.936;2023-07-16T06:40:25;10.90;;;8.25;;
22332;SDS011;11334;36.986;-121.936;2023-07-16T06:42:52;12.65;;;9.07;;
22332;SDS011;11334;36.986;-121.936;2023-07-16T06:45:18;11.82;;;7.82;;
22332;SDS011;11334;36.986;-121.936;2023-07-16T06:47:44;10.95;;;8.20;;
22332;SDS011;11334;36.986;-121.936;2023-07-16T06:50:10;10.10;;;8.35;;
22332;SDS011;11334;36.986;-121.936;2023-07-16T06:52:36;11.32;;;7.80;;
22332;SDS011;11334;36.986;-121.936;2023-07-16T06:55:03;10.40;;;7.90;;
22332;SDS011;11334;36.986;-121.936;2023-07-16T06:57:29;13.95;;;8.07;;
22332;SDS011;11334;36.986;-121.936;2023-07-16T06:59:56;8.70;;;7.80;;
22332;SDS011;11334;36.986;-121.936;2023-07-16T07:02:22;8.48;;;7.38;;
22332;SDS011;11334;36.986;-121.936;2023-07-16T07:04:49;10.55;;;8.02;;
22332;SDS011;11334;36.986;-121.936;2023-07-16T07:07:16;13.43;;;8.02;;
22332;SDS011;11334;36.986;-121.936;2023-07-16T07:09:42;9.98;;;8.35;;
22332;SDS011;11334;36.986;-121.936;2023-07-16T07:12:12;10.20;;;7.50;;
22332;SDS011;11334;36.986;-121.936;2023-07-16T07:14:38;9.82;;;8.30;;
22332;SDS011;11334;36.986;-121.936;2023-07-16T07:17:05;9.80;;;7.70;;
22332;SDS011;11334;36.986;-121.936;2023-07-16T07:19:31;9.40;;;8.40;;
22332;SDS011;11334;36.986;-121.936;2023-07-16T07:21:58;10.75;;;8.68;;
22332;SDS011;11334;36.986;-121.936;2023-07-16T07:24:24;13.18;;;8.95;;
22332;SDS011;11334;36.986;-121.936;2023-07-16T07:26:50;10.57;;;8.73;;
22332;SDS011;11334;36.986;-121.936;2023-07-16T07:29:16;10.63;;;8.73;;
22332;SDS011;11334;36.986;-121.936;2023-07-16T07:31:43;8.25;;;7.35;;
22332;SDS011;11334;36.986;-121.936;2023-07-16T07:34:09;8.73;;;6.97;;
22332;SDS011;11334;36.986;-121.936;2023-07-16T07:36:35;12.30;;;7.82;;
22332;SDS011;11334;36.986;-121.936;2023-07-16T07:39:01;7.68;;;6.97;;
22332;SDS011;11334;36.986;-121.936;2023-07-16T07:41:28;10.32;;;6.40;;
22332;SDS011;11334;36.986;-121.936;2023-07-16T07:43:54;6.95;;;6.25;;
22332;SDS011;11334;36.986;-121.936;2023-07-16T07:46:20;8.90;;;6.70;;
22332;SDS011;11334;36.986;-121.936;2023-07-16T07:48:46;8.18;;;7.18;;
22332;SDS011;11334;36.986;-121.936;2023-07-16T07:51:12;8.48;;;7.50;;
22332;SDS011;11334;36.986;-121.936;2023-07-16T07:53:39;10.07;;;7.30;;
22332;SDS011;11334;36.986;-121.936;2023-07-16T07:56:05;9.85;;;8.15;;
22332;SDS011;11334;36.986;-121.936;2023-07-16T07:58:31;8.45;;;6.70;;
22332;SDS011;11334;36.986;-121.936;2023-07-16T08:01:02;8.98;;;6.90;;
22332;SDS011;11334;36.986;-121.936;2023-07-16T08:03:32;9.80;;;7.50;;
22332;SDS011;11334;36.986;-121.936;2023-07-16T08:05:59;8.32;;;6.95;;
22332;SDS011;11334;36.986;-121.936;2023-07-16T08:08:25;10.70;;;6.93;;
22332;SDS011;11334;36.986;-121.936;2023-07-16T08:10:52;8.02;;;6.65;;
22332;SDS011;11334;36.986;-121.936;2023-07-16T08:13:21;9.77;;;6.53;;
22332;SDS011;11334;36.986;-121.936;2023-07-16T08:15:47;8.68;;;6.93;;
22332;SDS011;11334;36.986;-121.936;2023-07-16T08:18:13;8.25;;;6.82;;
22332;SDS011;11334;36.986;-121.936;2023-07-16T08:20:40;8.27;;;7.30;;
22332;SDS011;11334;36.986;-121.936;2023-07-16T08:23:06;10.30;;;8.45;;
22332;SDS011;11334;36.986;-121.936;2023-07-16T08:25:33;10.15;;;7.68;;
22332;SDS011;11334;36.986;-121.936;2023-07-16T08:28:01;7.95;;;7.18;;
22332;SDS011;11334;36.986;-121.936;2023-07-16T08:30:28;9.63;;;8.02;;
22332;SDS011;11334;36.986;-121.936;2023-07-16T08:32:54;12.55;;;9.88;;
22332;SDS011;11334;36.986;-121.936;2023-07-16T08:35:20;11.85;;;9.07;;
22332;SDS011;11334;36.986;-121.936;2023-07-16T08:37:47;12.30;;;10.13;;
22332;SDS011;11334;36.986;-121.936;2023-07-16T08:40:13;11.82;;;10.23;;
22332;SDS011;11334;36.986;-121.936;2023-07-16T08:42:40;10.98;;;8.93;;
22332;SDS011;11334;36.986;-121.936;2023-07-16T08:45:09;11.95;;;9.73;;
22332;SDS011;11334;36.986;-121.936;2023-07-16T08:47:36;11.95;;;9.68;;
22332;SDS011;11334;36.986;-121.936;2023-07-16T08:50:03;12.07;;;9.88;;
22332;SDS011;11334;36.986;-121.936;2023-07-16T08:52:30;12.65;;;10.55;;
22332;SDS011;11334;36.986;-121.936;2023-07-16T08:54:56;11.75;;;10.40;;
22332;SDS011;11334;36.986;-121.936;2023-07-16T08:57:22;9.98;;;8.98;;
22332;SDS011;11334;36.986;-121.936;2023-07-16T08:59:49;12.18;;;9.93;;
22332;SDS011;11334;36.986;-121.936;2023-07-16T09:02:19;13.82;;;10.60;;
22332;SDS011;11334;36.986;-121.936;2023-07-16T09:04:47;10.18;;;9.18;;
22332;SDS011;11334;36.986;-121.936;2023-07-16T09:07:14;10.73;;;9.68;;
22332;SDS011;11334;36.986;-121.936;2023-07-16T09:09:41;12.65;;;10.27;;
22332;SDS011;11334;36.986;-121.936;2023-07-16T09:12:11;12.48;;;10.63;;
22332;SDS011;11334;36.986;-121.936;2023-07-16T09:14:40;10.57;;;9.45;;
22332;SDS011;11334;36.986;-121.936;2023-07-16T09:17:07;11.15;;;10.05;;
22332;SDS011;11334;36.986;-121.936;2023-07-16T09:19:33;10.98;;;9.60;;
22332;SDS011;11334;36.986;-121.936;2023-07-16T09:21:59;11.85;;;10.25;;
22332;SDS011;11334;36.986;-121.936;2023-07-16T09:24:25;12.32;;;10.80;;
22332;SDS011;11334;36.986;-121.936;2023-07-16T09:26:52;12.23;;;10.52;;
22332;SDS011;11334;36.986;-121.936;2023-07-16T09:29:21;11.15;;;9.27;;
22332;SDS011;11334;36.986;-121.936;2023-07-16T09:31:57;11.23;;;10.10;;
22332;SDS011;11334;36.986;-121.936;2023-07-16T09:34:26;11.20;;;9.23;;
22332;SDS011;11334;36.986;-121.936;2023-07-16T09:36:53;15.68;;;11.30;;
22332;SDS011;11334;36.986;-121.936;2023-07-16T09:39:19;15.52;;;11.30;;
22332;SDS011;11334;36.986;-121.936;2023-07-16T09:41:47;22.77;;;10.65;;
22332;SDS011;11334;36.986;-121.936;2023-07-16T09:44:14;14.57;;;10.70;;
22332;SDS011;11334;36.986;-121.936;2023-07-16T09:46:44;13.70;;;12.30;;
22332;SDS011;11334;36.986;-121.936;2023-07-16T09:49:11;13.25;;;10.43;;
22332;SDS011;11334;36.986;-121.936;2023-07-16T09:51:40;13.43;;;11.00;;
22332;SDS011;11334;36.986;-121.936;2023-07-16T09:54:08;12.77;;;11.23;;
22332;SDS011;11334;36.986;-121.936;2023-07-16T09:56:40;48.03;;;12.50;;
22332;SDS011;11334;36.986;-121.936;2023-07-16T09:59:23;16.60;;;11.80;;
22332;SDS011;11334;36.986;-121.936;2023-07-16T10:01:54;16.40;;;11.45;;
22332;SDS011;11334;36.986;-121.936;2023-07-16T10:04:21;13.52;;;11.70;;
22332;SDS011;11334;36.986;-121.936;2023-07-16T10:06:51;12.65;;;11.23;;
22332;SDS011;11334;36.986;-121.936;2023-07-16T10:12:34;16.65;;;11.43;;
22332;SDS011;11334;36.986;-121.936;2023-07-16T10:14:54;12.63;;;11.32;;
22332;SDS011;11334;36.986;-121.936;2023-07-16T10:17:29;13.90;;;10.15;;
22332;SDS011;11334;36.986;-121.936;2023-07-16T10:19:57;13.23;;;11.35;;
22332;SDS011;11334;36.986;-121.936;2023-07-16T10:25:02;13.48;;;9.43;;
22332;SDS011;11334;36.986;-121.936;2023-07-16T10:27:31;10.23;;;9.23;;
22332;SDS011;11334;36.986;-121.936;2023-07-16T10:29:59;10.57;;;9.38;;
22332;SDS011;11334;36.986;-121.936;2023-07-16T10:32:30;11.00;;;9.85;;
22332;SDS011;11334;36.986;-121.936;2023-07-16T10:34:57;11.02;;;9.70;;
22332;SDS011;11334;36.986;-121.936;2023-07-16T10:37:24;12.90;;;10.38;;
22332;SDS011;11334;36.986;-121.936;2023-07-16T10:39:56;11.13;;;9.85;;
22332;SDS011;11334;36.986;-121.936;2023-07-16T10:42:24;13.20;;;10.90;;
22332;SDS011;11334;36.986;-121.936;2023-07-16T10:44:52;11.75;;;9.93;;
22332;SDS011;11334;36.986;-121.936;2023-07-16T10:47:20;10.70;;;9.60;;
22332;SDS011;11334;36.986;-121.936;2023-07-16T10:49:51;10.40;;;9.30;;
22332;SDS011;11334;36.986;-121.936;2023-07-16T10:52:17;11.82;;;8.82;;
22332;SDS011;11334;36.986;-121.936;2023-07-16T10:54:44;10.38;;;9.27;;
22332;SDS011;11334;36.986;-121.936;2023-07-16T10:57:11;16.38;;;10.32;;
22332;SDS011;11334;36.986;-121.936;2023-07-16T10:59:39;11.35;;;9.93;;
22332;SDS011;11334;36.986;-121.936;2023-07-16T11:02:14;11.43;;;10.27;;
22332;SDS011;11334;36.986;-121.936;2023-07-16T11:04:41;13.30;;;9.95;;
22332;SDS011;11334;36.986;-121.936;2023-07-16T11:07:10;10.13;;;9.13;;
22332;SDS011;11334;36.986;-121.936;2023-07-16T11:09:41;10.40;;;9.05;;
22332;SDS011;11334;36.986;-121.936;2023-07-16T11:12:14;10.18;;;9.07;;
22332;SDS011;11334;36.986;-121.936;2023-07-16T11:14:45;11.27;;;8.43;;
22332;SDS011;11334;36.986;-121.936;2023-07-16T11:17:15;11.27;;;9.30;;
22332;SDS011;11334;36.986;-121.936;2023-07-16T11:19:46;12.75;;;10.02;;
22332;SDS011;11334;36.986;-121.936;2023-07-16T11:22:14;9.82;;;8.88;;
22332;SDS011;11334;36.986;-121.936;2023-07-16T11:24:44;10.63;;;9.20;;
22332;SDS011;11334;36.986;-121.936;2023-07-16T11:27:15;10.73;;;9.15;;
22332;SDS011;11334;36.986;-121.936;2023-07-16T11:29:53;10.88;;;9.75;;
22332;SDS011;11334;36.986;-121.936;2023-07-16T11:32:30;10.25;;;9.23;;
22332;SDS011;11334;36.986;-121.936;2023-07-16T11:35:01;10.15;;;8.77;;
22332;SDS011;11334;36.986;-121.936;2023-07-16T11:37:30;8.93;;;8.02;;
22332;SDS011;11334;36.986;-121.936;2023-07-16T11:39:57;10.45;;;8.88;;
22332;SDS011;11334;36.986;-121.936;2023-07-16T11:44:59;16.88;;;10.00;;
22332;SDS011;11334;36.986;-121.936;2023-07-16T11:47:26;10.43;;;9.38;;
22332;SDS011;11334;36.986;-121.936;2023-07-16T11:49:53;13.30;;;10.18;;
22332;SDS011;11334;36.986;-121.936;2023-07-16T11:52:23;16.20;;;10.85;;
22332;SDS011;11334;36.986;-121.936;2023-07-16T11:54:52;11.65;;;10.48;;
22332;SDS011;11334;36.986;-121.936;2023-07-16T11:57:19;11.45;;;9.75;;
22332;SDS011;11334;36.986;-121.936;2023-07-16T11:59:45;11.68;;;9.77;;
22332;SDS011;11334;36.986;-121.936;2023-07-16T12:02:12;16.08;;;10.32;;
22332;SDS011;11334;36.986;-121.936;2023-07-16T12:04:38;11.13;;;10.00;;
22332;SDS011;11334;36.986;-121.936;2023-07-16T12:07:05;12.63;;;10.93;;
22332;SDS011;11334;36.986;-121.936;2023-07-16T12:09:31;12.57;;;10.73;;
22332;SDS011;11334;36.986;-121.936;2023-07-16T12:11:57;11.60;;;10.18;;
22332;SDS011;11334;36.986;-121.936;2023-07-16T12:14:24;14.45;;;11.43;;
22332;SDS011;11334;36.986;-121.936;2023-07-16T12:16:53;12.25;;;10.15;;
22332;SDS011;11334;36.986;-121.936;2023-07-16T12:19:20;12.32;;;10.27;;
22332;SDS011;11334;36.986;-121.936;2023-07-16T12:21:46;12.27;;;9.95;;
22332;SDS011;11334;36.986;-121.936;2023-07-16T12:24:12;10.45;;;9.35;;
22332;SDS011;11334;36.986;-121.936;2023-07-16T12:26:39;10.38;;;9.02;;
22332;SDS011;11334;36.986;-121.936;2023-07-16T12:29:05;10.05;;;9.05;;
22332;SDS011;11334;36.986;-121.936;2023-07-16T12:31:32;11.75;;;9.50;;
22332;SDS011;11334;36.986;-121.936;2023-07-16T12:34:01;14.00;;;11.68;;
22332;SDS011;11334;36.986;-121.936;2023-07-16T12:36:27;11.20;;;10.10;;
22332;SDS011;11334;36.986;-121.936;2023-07-16T12:38:54;10.18;;;9.18;;
22332;SDS011;11334;36.986;-121.936;2023-07-16T12:41:20;11.68;;;10.00;;
22332;SDS011;11334;36.986;-121.936;2023-07-16T12:43:47;12.73;;;10.57;;
22332;SDS011;11334;36.986;-121.936;2023-07-16T12:46:13;10.30;;;9.27;;
22332;SDS011;11334;36.986;-121.936;2023-07-16T12:48:39;12.52;;;9.98;;
22332;SDS011;11334;36.986;-121.936;2023-07-16T12:51:05;11.75;;;9.93;;
22332;SDS011;11334;36.986;-121.936;2023-07-16T12:53:32;11.05;;;9.85;;
22332;SDS011;11334;36.986;-121.936;2023-07-16T12:55:58;13.77;;;9.88;;
22332;SDS011;11334;36.986;-121.936;2023-07-16T12:58:25;10.77;;;9.30;;
22332;SDS011;11334;36.986;-121.936;2023-07-16T13:00:51;11.98;;;10.18;;
22332;SDS011;11334;36.986;-121.936;2023-07-16T13:03:17;12.55;;;10.18;;
22332;SDS011;11334;36.986;-121.936;2023-07-16T13:05:44;11.30;;;10.02;;
22332;SDS011;11334;36.986;-121.936;2023-07-16T13:08:10;10.73;;;9.70;;
22332;SDS011;11334;36.986;-121.936;2023-07-16T13:10:37;11.35;;;9.43;;
22332;SDS011;11334;36.986;-121.936;2023-07-16T13:13:04;11.40;;;10.20;;
22332;SDS011;11334;36.986;-121.936;2023-07-16T13:15:31;10.07;;;9.02;;
22332;SDS011;11334;36.986;-121.936;2023-07-16T13:17:58;11.98;;;9.82;;
22332;SDS011;11334;36.986;-121.936;2023-07-16T13:20:24;11.80;;;10.15;;
22332;SDS011;11334;36.986;-121.936;2023-07-16T13:22:50;12.68;;;10.80;;
22332;SDS011;11334;36.986;-121.936;2023-07-16T13:25:17;12.30;;;11.00;;
22332;SDS011;11334;36.986;-121.936;2023-07-16T13:27:43;14.25;;;10.65;;
22332;SDS011;11334;36.986;-121.936;2023-07-16T13:30:09;13.25;;;11.80;;
22332;SDS011;11334;36.986;-121.936;2023-07-16T13:32:36;13.00;;;11.18;;
22332;SDS011;11334;36.986;-121.936;2023-07-16T13:35:02;13.45;;;11.70;;
22332;SDS011;11334;36.986;-121.936;2023-07-16T13:37:28;13.82;;;10.82;;
22332;SDS011;11334;36.986;-121.936;2023-07-16T13:39:55;12.50;;;10.27;;
22332;SDS011;11334;36.986;-121.936;2023-07-16T13:42:21;11.90;;;10.05;;
22332;SDS011;11334;36.986;-121.936;2023-07-16T13:44:47;13.82;;;11.43;;
22332;SDS011;11334;36.986;-121.936;2023-07-16T13:47:13;14.13;;;11.55;;
22332;SDS011;11334;36.986;-121.936;2023-07-16T13:49:39;11.32;;;10.13;;
22332;SDS011;11334;36.986;-121.936;2023-07-16T13:52:06;11.70;;;10.30;;
22332;SDS011;11334;36.986;-121.936;2023-07-16T13:54:32;13.75;;;10.88;;
22332;SDS011;11334;36.986;-121.936;2023-07-16T13:56:58;12.55;;;10.23;;
22332;SDS011;11334;36.986;-121.936;2023-07-16T13:59:24;13.90;;;10.95;;
22332;SDS011;11334;36.986;-121.936;2023-07-16T14:01:58;13.82;;;10.05;;
22332;SDS011;11334;36.986;-121.936;2023-07-16T14:04:26;12.55;;;10.00;;
22332;SDS011;11334;36.986;-121.936;2023-07-16T14:06:53;13.35;;;10.80;;
22332;SDS011;11334;36.986;-121.936;2023-07-16T14:09:20;11.85;;;10.05;;
22332;SDS011;11334;36.986;-121.936;2023-07-16T14:11:46;14.60;;;9.60;;